Nedim — 9HA3154 — position and weather

sailwx.info

Track history (hours):
 
Tides and Currents Weather Stations Pressure Air Temp Water Temp Dewpoint Dewpoint Depression Visibility Wind Speed Wind Dir Waves Ship Positions

Nedim

Last reported at 2017-Nov-18 20:29 UTC. Time now 2017-Nov-25 07:43 UTC.
Position N 36°25' E 014°41'.

Length 180 m; draft 10 m.

Type: Cargo ship. MMSI: 229214000.

Date/timePositionNaut miles runAvg speedWind from/ knotsBaromVisibWave heightAir tempDewpointWater temp
2017-Nov-18 20:29N 36°25' E 014°41'813.9
2017-Nov-18 19:55N 36°27' E 014°32'613.6
2017-Nov-18 19:30N 36°28' E 014°25'713.7
2017-Nov-18 19:00N 36°30' E 014°17'713.6
2017-Nov-18 18:30N 36°32' E 014°09'1513.6
2017-Nov-18 17:23N 36°36' E 013°51'  
2017-Nov-15 20:52N 36°02' W 005°13'513.4
2017-Nov-15 20:30N 36°03' W 005°19'5 8.5
2017-Nov-15 19:53N 36°07' W 005°23'1 0.1
2017-Nov-15 05:01N 36°08' W 005°22'0 0.1
2017-Nov-15 04:31N 36°08' W 005°22'0 0.1
2017-Nov-15 04:22N 36°08' W 005°22'0 0.0
2017-Nov-14 23:19N 36°08' W 005°22'1 0.5
2017-Nov-14 20:58N 36°07' W 005°22'2 4.0
2017-Nov-14 20:30N 36°05' W 005°21'2 3.8
2017-Nov-14 19:57N 36°06' W 005°19'3 6.1
2017-Nov-14 19:30N 36°07' W 005°16'281 5.8
2017-Nov-12 18:52N 32°54' W 009°24'411.8
2017-Nov-12 18:30N 32°51' W 009°27'4311.0
2017-Nov-12 14:37N 32°19' W 010°01'1010.7
2017-Nov-12 13:40N 32°11' W 010°08'210.8
2017-Nov-12 13:30N 32°09' W 010°09'610.8
2017-Nov-12 12:59N 32°05' W 010°13'7311.6
2017-Nov-12 06:41N 31°06' W 011°04'211.8
2017-Nov-12 06:30N 31°04' W 011°05'711.7
2017-Nov-12 05:53N 30°59' W 011°10'3711.4
2017-Nov-12 02:39N 30°29' W 011°36'211.0
2017-Nov-12 02:30N 30°28' W 011°37'611.0
2017-Nov-12 02:00N 30°23' W 011°41'611.0
2017-Nov-12 01:29N 30°18' W 011°45'4410.8
2017-Nov-11 21:25N 29°43' W 012°14'510.7
2017-Nov-11 20:59N 29°39' W 012°17'1610.8
2017-Nov-11 19:28N 29°26' W 012°29'510.8
2017-Nov-11 18:58N 29°22' W 012°32'5910.7
2017-Nov-11 13:27N 28°33' W 013°11'1110.8
2017-Nov-11 12:29N 28°24' W 013°17'1011.0
2017-Nov-11 11:31N 28°16' W 013°24'010.9
2017-Nov-11 11:30N 28°15' W 013°24'510.9
2017-Nov-11 11:00N 28°11' W 013°27'710.9
2017-Nov-11 10:23N 28°05' W 013°32'411.0
2017-Nov-11 10:00N 28°02' W 013°34'510.9
2017-Nov-11 09:30N 27°57' W 013°38'511.0
2017-Nov-11 09:00N 27°53' W 013°41'510.7
2017-Nov-11 08:30N 27°48' W 013°45'510.2
2017-Nov-11 08:00N 27°45' W 013°49'510.3
2017-Nov-11 07:30N 27°41' W 013°52'5 9.9
2017-Nov-11 07:00N 27°37' W 013°56'5 9.9
2017-Nov-11 06:30N 27°33' W 013°59'510.4
2017-Nov-11 05:59N 27°29' W 014°03'510.6
2017-Nov-11 05:30N 27°25' W 014°07'510.8
2017-Nov-11 05:00N 27°20' W 014°10'510.6
2017-Nov-11 04:30N 27°16' W 014°14'510.4
2017-Nov-11 04:00N 27°12' W 014°18'510.0
2017-Nov-11 03:30N 27°08' W 014°22'5 9.7
2017-Nov-11 03:00N 27°05' W 014°25'5 9.8
2017-Nov-11 02:29N 27°01' W 014°29'5 9.8
2017-Nov-11 02:00N 26°57' W 014°32'5 9.6
2017-Nov-11 01:30N 26°53' W 014°35'5 9.4
2017-Nov-11 01:00N 26°49' W 014°38'5 9.6
2017-Nov-11 00:30N 26°46' W 014°42'5 9.6
2017-Nov-11 00:00N 26°42' W 014°45'67 9.9
2017-Nov-10 17:17N 25°50' W 015°32'910.6
2017-Nov-10 16:24N 25°43' W 015°39'410.4
2017-Nov-10 16:00N 25°40' W 015°42'510.5
2017-Nov-10 15:30N 25°36' W 015°45'510.5
2017-Nov-10 15:00N 25°32' W 015°49'510.7
2017-Nov-10 14:30N 25°28' W 015°53'510.8
2017-Nov-10 14:00N 25°23' W 015°57'510.8
2017-Nov-10 13:30N 25°19' W 016°00'611.1
2017-Nov-10 13:00N 25°15' W 016°04'611.2
2017-Nov-10 12:30N 25°10' W 016°08'611.0
2017-Nov-10 12:00N 25°06' W 016°12'611.0
2017-Nov-10 11:30N 25°02' W 016°16'611.2
2017-Nov-10 10:59N 24°57' W 016°20'  
Track history (hours):
 
Tides and Currents Weather Stations Pressure Air Temp Water Temp Dewpoint Dewpoint Depression Visibility Wind Speed Wind Dir Waves Ship Positions

Nedim

Last reported at 2017-Nov-18 20:29 UTC. Time now 2017-Nov-25 07:43 UTC.
Position N 36°25' E 014°41'.

Length 180 m; draft 10 m.

Type: Cargo ship. MMSI: 229214000.

Date/timePositionNaut miles runAvg speedWind from/ knotsBaromVisibWave heightAir tempDewpointWater temp
2017-Nov-18 20:29N 36°25' E 014°41'813.9
2017-Nov-18 19:55N 36°27' E 014°32'613.6
2017-Nov-18 19:30N 36°28' E 014°25'713.7
2017-Nov-18 19:00N 36°30' E 014°17'713.6
2017-Nov-18 18:30N 36°32' E 014°09'1513.6
2017-Nov-18 17:23N 36°36' E 013°51'  
2017-Nov-15 20:52N 36°02' W 005°13'513.4
2017-Nov-15 20:30N 36°03' W 005°19'5 8.5
2017-Nov-15 19:53N 36°07' W 005°23'1 0.1
2017-Nov-15 05:01N 36°08' W 005°22'0 0.1
2017-Nov-15 04:31N 36°08' W 005°22'0 0.1
2017-Nov-15 04:22N 36°08' W 005°22'0 0.0
2017-Nov-14 23:19N 36°08' W 005°22'1 0.5
2017-Nov-14 20:58N 36°07' W 005°22'2 4.0
2017-Nov-14 20:30N 36°05' W 005°21'2 3.8
2017-Nov-14 19:57N 36°06' W 005°19'3 6.1
2017-Nov-14 19:30N 36°07' W 005°16'281 5.8
2017-Nov-12 18:52N 32°54' W 009°24'411.8
2017-Nov-12 18:30N 32°51' W 009°27'4311.0
2017-Nov-12 14:37N 32°19' W 010°01'1010.7
2017-Nov-12 13:40N 32°11' W 010°08'210.8
2017-Nov-12 13:30N 32°09' W 010°09'610.8
2017-Nov-12 12:59N 32°05' W 010°13'7311.6
2017-Nov-12 06:41N 31°06' W 011°04'211.8
2017-Nov-12 06:30N 31°04' W 011°05'711.7
2017-Nov-12 05:53N 30°59' W 011°10'3711.4
2017-Nov-12 02:39N 30°29' W 011°36'211.0
2017-Nov-12 02:30N 30°28' W 011°37'611.0
2017-Nov-12 02:00N 30°23' W 011°41'611.0
2017-Nov-12 01:29N 30°18' W 011°45'4410.8
2017-Nov-11 21:25N 29°43' W 012°14'510.7
2017-Nov-11 20:59N 29°39' W 012°17'1610.8
2017-Nov-11 19:28N 29°26' W 012°29'510.8
2017-Nov-11 18:58N 29°22' W 012°32'5910.7
2017-Nov-11 13:27N 28°33' W 013°11'1110.8
2017-Nov-11 12:29N 28°24' W 013°17'1011.0
2017-Nov-11 11:31N 28°16' W 013°24'010.9
2017-Nov-11 11:30N 28°15' W 013°24'510.9
2017-Nov-11 11:00N 28°11' W 013°27'710.9
2017-Nov-11 10:23N 28°05' W 013°32'411.0
2017-Nov-11 10:00N 28°02' W 013°34'510.9
2017-Nov-11 09:30N 27°57' W 013°38'511.0
2017-Nov-11 09:00N 27°53' W 013°41'510.7
2017-Nov-11 08:30N 27°48' W 013°45'510.2
2017-Nov-11 08:00N 27°45' W 013°49'510.3
2017-Nov-11 07:30N 27°41' W 013°52'5 9.9
2017-Nov-11 07:00N 27°37' W 013°56'5 9.9
2017-Nov-11 06:30N 27°33' W 013°59'510.4
2017-Nov-11 05:59N 27°29' W 014°03'510.6
2017-Nov-11 05:30N 27°25' W 014°07'510.8
2017-Nov-11 05:00N 27°20' W 014°10'510.6
2017-Nov-11 04:30N 27°16' W 014°14'510.4
2017-Nov-11 04:00N 27°12' W 014°18'510.0
2017-Nov-11 03:30N 27°08' W 014°22'5 9.7
2017-Nov-11 03:00N 27°05' W 014°25'5 9.8
2017-Nov-11 02:29N 27°01' W 014°29'5 9.8
2017-Nov-11 02:00N 26°57' W 014°32'5 9.6
2017-Nov-11 01:30N 26°53' W 014°35'5 9.4
2017-Nov-11 01:00N 26°49' W 014°38'5 9.6
2017-Nov-11 00:30N 26°46' W 014°42'5 9.6
2017-Nov-11 00:00N 26°42' W 014°45'67 9.9
2017-Nov-10 17:17N 25°50' W 015°32'910.6
2017-Nov-10 16:24N 25°43' W 015°39'410.4
2017-Nov-10 16:00N 25°40' W 015°42'510.5
2017-Nov-10 15:30N 25°36' W 015°45'510.5
2017-Nov-10 15:00N 25°32' W 015°49'510.7
2017-Nov-10 14:30N 25°28' W 015°53'510.8
2017-Nov-10 14:00N 25°23' W 015°57'510.8
2017-Nov-10 13:30N 25°19' W 016°00'611.1
2017-Nov-10 13:00N 25°15' W 016°04'611.2
2017-Nov-10 12:30N 25°10' W 016°08'611.0
2017-Nov-10 12:00N 25°06' W 016°12'611.0
2017-Nov-10 11:30N 25°02' W 016°16'611.2
2017-Nov-10 10:59N 24°57' W 016°20'  

Dump ship's entire track history